sensor_id;sensor_type;location;lat;lon;timestamp;P1;durP1;ratioP1;P2;durP2;ratioP2
23322;SDS011;11833;52.554;13.554;2023-12-22T00:02:07;10.77;;;2.75;;
23322;SDS011;11833;52.554;13.554;2023-12-22T00:04:33;9.70;;;1.95;;
23322;SDS011;11833;52.554;13.554;2023-12-22T00:06:59;5.30;;;2.17;;
23322;SDS011;11833;52.554;13.554;2023-12-22T00:09:25;7.03;;;2.08;;
23322;SDS011;11833;52.554;13.554;2023-12-22T00:11:50;9.43;;;2.28;;
23322;SDS011;11833;52.554;13.554;2023-12-22T00:14:16;8.88;;;2.33;;
23322;SDS011;11833;52.554;13.554;2023-12-22T00:16:42;9.07;;;2.30;;
23322;SDS011;11833;52.554;13.554;2023-12-22T00:19:08;3.83;;;1.98;;
23322;SDS011;11833;52.554;13.554;2023-12-22T00:21:34;9.98;;;2.38;;
23322;SDS011;11833;52.554;13.554;2023-12-22T00:23:59;10.82;;;2.10;;
23322;SDS011;11833;52.554;13.554;2023-12-22T00:26:25;7.32;;;1.73;;
23322;SDS011;11833;52.554;13.554;2023-12-22T00:28:51;5.75;;;1.95;;
23322;SDS011;11833;52.554;13.554;2023-12-22T00:31:17;8.60;;;1.85;;
23322;SDS011;11833;52.554;13.554;2023-12-22T00:33:43;10.18;;;2.20;;
23322;SDS011;11833;52.554;13.554;2023-12-22T00:36:09;11.20;;;1.77;;
23322;SDS011;11833;52.554;13.554;2023-12-22T00:38:34;9.43;;;2.53;;
23322;SDS011;11833;52.554;13.554;2023-12-22T00:41:00;10.93;;;2.20;;
23322;SDS011;11833;52.554;13.554;2023-12-22T00:43:26;9.50;;;2.20;;
23322;SDS011;11833;52.554;13.554;2023-12-22T00:45:51;6.68;;;1.75;;
23322;SDS011;11833;52.554;13.554;2023-12-22T00:48:17;9.40;;;2.20;;
23322;SDS011;11833;52.554;13.554;2023-12-22T00:50:43;9.68;;;2.72;;
23322;SDS011;11833;52.554;13.554;2023-12-22T00:53:09;10.32;;;2.85;;
23322;SDS011;11833;52.554;13.554;2023-12-22T00:55:35;18.45;;;2.15;;
23322;SDS011;11833;52.554;13.554;2023-12-22T00:58:00;12.70;;;2.92;;
23322;SDS011;11833;52.554;13.554;2023-12-22T01:00:26;12.88;;;2.58;;
23322;SDS011;11833;52.554;13.554;2023-12-22T01:02:52;7.47;;;2.08;;
23322;SDS011;11833;52.554;13.554;2023-12-22T01:05:17;10.15;;;2.50;;
23322;SDS011;11833;52.554;13.554;2023-12-22T01:07:43;10.40;;;1.83;;
23322;SDS011;11833;52.554;13.554;2023-12-22T01:10:09;10.65;;;2.17;;
23322;SDS011;11833;52.554;13.554;2023-12-22T01:12:34;7.47;;;2.13;;
23322;SDS011;11833;52.554;13.554;2023-12-22T01:15:02;11.00;;;3.22;;
23322;SDS011;11833;52.554;13.554;2023-12-22T01:17:29;10.48;;;2.03;;
23322;SDS011;11833;52.554;13.554;2023-12-22T01:19:54;13.90;;;2.50;;
23322;SDS011;11833;52.554;13.554;2023-12-22T01:22:20;8.13;;;2.03;;
23322;SDS011;11833;52.554;13.554;2023-12-22T01:24:47;10.75;;;2.10;;
23322;SDS011;11833;52.554;13.554;2023-12-22T01:27:13;8.85;;;2.47;;
23322;SDS011;11833;52.554;13.554;2023-12-22T01:29:39;9.48;;;2.00;;
23322;SDS011;11833;52.554;13.554;2023-12-22T01:32:05;10.80;;;2.22;;
23322;SDS011;11833;52.554;13.554;2023-12-22T01:34:31;6.80;;;1.83;;
23322;SDS011;11833;52.554;13.554;2023-12-22T01:36:57;6.10;;;1.73;;
23322;SDS011;11833;52.554;13.554;2023-12-22T01:39:22;15.90;;;2.60;;
23322;SDS011;11833;52.554;13.554;2023-12-22T01:41:48;8.55;;;2.30;;
23322;SDS011;11833;52.554;13.554;2023-12-22T01:44:14;6.00;;;1.70;;
23322;SDS011;11833;52.554;13.554;2023-12-22T01:46:39;7.90;;;2.13;;
23322;SDS011;11833;52.554;13.554;2023-12-22T01:49:05;12.40;;;2.83;;
23322;SDS011;11833;52.554;13.554;2023-12-22T01:51:33;10.55;;;2.10;;
23322;SDS011;11833;52.554;13.554;2023-12-22T01:54:00;13.25;;;2.05;;
23322;SDS011;11833;52.554;13.554;2023-12-22T01:56:26;8.60;;;1.80;;
23322;SDS011;11833;52.554;13.554;2023-12-22T01:58:55;15.15;;;2.70;;
23322;SDS011;11833;52.554;13.554;2023-12-22T02:01:24;8.77;;;1.80;;
23322;SDS011;11833;52.554;13.554;2023-12-22T02:03:50;9.07;;;1.90;;
23322;SDS011;11833;52.554;13.554;2023-12-22T02:06:17;8.07;;;2.13;;
23322;SDS011;11833;52.554;13.554;2023-12-22T02:08:44;8.70;;;1.90;;
23322;SDS011;11833;52.554;13.554;2023-12-22T02:11:12;9.60;;;2.45;;
23322;SDS011;11833;52.554;13.554;2023-12-22T02:13:42;4.65;;;1.65;;
23322;SDS011;11833;52.554;13.554;2023-12-22T02:16:16;5.82;;;2.10;;
23322;SDS011;11833;52.554;13.554;2023-12-22T02:18:49;12.98;;;2.67;;
23322;SDS011;11833;52.554;13.554;2023-12-22T02:21:18;10.13;;;1.92;;
23322;SDS011;11833;52.554;13.554;2023-12-22T02:23:43;11.65;;;2.42;;
23322;SDS011;11833;52.554;13.554;2023-12-22T02:26:12;11.57;;;2.33;;
23322;SDS011;11833;52.554;13.554;2023-12-22T02:28:55;10.55;;;1.98;;
23322;SDS011;11833;52.554;13.554;2023-12-22T02:31:27;8.68;;;2.10;;
23322;SDS011;11833;52.554;13.554;2023-12-22T02:34:10;9.15;;;1.95;;
23322;SDS011;11833;52.554;13.554;2023-12-22T02:36:40;12.05;;;3.05;;
23322;SDS011;11833;52.554;13.554;2023-12-22T02:39:07;11.48;;;2.45;;
23322;SDS011;11833;52.554;13.554;2023-12-22T02:41:35;7.45;;;2.10;;
23322;SDS011;11833;52.554;13.554;2023-12-22T02:44:01;10.23;;;1.90;;
23322;SDS011;11833;52.554;13.554;2023-12-22T02:46:27;10.48;;;2.40;;
23322;SDS011;11833;52.554;13.554;2023-12-22T02:48:53;13.40;;;2.80;;
23322;SDS011;11833;52.554;13.554;2023-12-22T02:51:19;14.45;;;2.90;;
23322;SDS011;11833;52.554;13.554;2023-12-22T02:53:44;9.57;;;2.40;;
23322;SDS011;11833;52.554;13.554;2023-12-22T02:56:10;9.65;;;2.03;;
23322;SDS011;11833;52.554;13.554;2023-12-22T02:58:36;7.45;;;1.95;;
23322;SDS011;11833;52.554;13.554;2023-12-22T03:01:01;6.50;;;1.40;;
23322;SDS011;11833;52.554;13.554;2023-12-22T03:03:27;17.20;;;2.15;;
23322;SDS011;11833;52.554;13.554;2023-12-22T03:05:53;8.10;;;1.67;;
23322;SDS011;11833;52.554;13.554;2023-12-22T03:08:18;8.35;;;1.58;;
23322;SDS011;11833;52.554;13.554;2023-12-22T03:10:44;9.13;;;2.03;;
23322;SDS011;11833;52.554;13.554;2023-12-22T03:13:10;12.45;;;2.78;;
23322;SDS011;11833;52.554;13.554;2023-12-22T03:15:35;7.72;;;1.80;;
23322;SDS011;11833;52.554;13.554;2023-12-22T03:18:01;10.55;;;2.38;;
23322;SDS011;11833;52.554;13.554;2023-12-22T03:20:27;10.65;;;1.77;;
23322;SDS011;11833;52.554;13.554;2023-12-22T03:22:53;6.38;;;1.42;;
23322;SDS011;11833;52.554;13.554;2023-12-22T03:25:18;7.18;;;1.95;;
23322;SDS011;11833;52.554;13.554;2023-12-22T03:27:44;8.07;;;2.38;;
23322;SDS011;11833;52.554;13.554;2023-12-22T03:30:10;4.55;;;1.33;;
23322;SDS011;11833;52.554;13.554;2023-12-22T03:32:36;8.20;;;1.85;;
23322;SDS011;11833;52.554;13.554;2023-12-22T03:35:02;5.55;;;1.20;;
23322;SDS011;11833;52.554;13.554;2023-12-22T03:37:28;6.13;;;1.80;;
23322;SDS011;11833;52.554;13.554;2023-12-22T03:39:54;6.43;;;1.40;;
23322;SDS011;11833;52.554;13.554;2023-12-22T03:42:19;8.80;;;1.27;;
23322;SDS011;11833;52.554;13.554;2023-12-22T03:44:45;3.70;;;1.20;;
23322;SDS011;11833;52.554;13.554;2023-12-22T03:47:11;3.10;;;1.17;;
23322;SDS011;11833;52.554;13.554;2023-12-22T03:49:36;5.32;;;1.10;;
23322;SDS011;11833;52.554;13.554;2023-12-22T03:52:02;3.55;;;1.48;;
23322;SDS011;11833;52.554;13.554;2023-12-22T03:54:28;7.90;;;1.73;;
23322;SDS011;11833;52.554;13.554;2023-12-22T03:56:54;9.60;;;1.42;;
23322;SDS011;11833;52.554;13.554;2023-12-22T03:59:19;9.00;;;1.60;;
23322;SDS011;11833;52.554;13.554;2023-12-22T04:01:50;6.60;;;1.92;;
23322;SDS011;11833;52.554;13.554;2023-12-22T04:04:20;9.85;;;1.67;;
23322;SDS011;11833;52.554;13.554;2023-12-22T04:06:47;7.88;;;2.53;;
23322;SDS011;11833;52.554;13.554;2023-12-22T04:09:14;6.32;;;1.30;;
23322;SDS011;11833;52.554;13.554;2023-12-22T04:11:39;11.05;;;2.30;;
23322;SDS011;11833;52.554;13.554;2023-12-22T04:14:06;5.47;;;1.98;;
23322;SDS011;11833;52.554;13.554;2023-12-22T04:16:32;8.65;;;1.42;;
23322;SDS011;11833;52.554;13.554;2023-12-22T04:18:58;4.05;;;1.70;;
23322;SDS011;11833;52.554;13.554;2023-12-22T04:21:23;8.40;;;1.40;;
23322;SDS011;11833;52.554;13.554;2023-12-22T04:23:49;4.38;;;1.00;;
23322;SDS011;11833;52.554;13.554;2023-12-22T04:26:15;1.48;;;0.90;;
23322;SDS011;11833;52.554;13.554;2023-12-22T04:28:40;3.58;;;0.90;;
23322;SDS011;11833;52.554;13.554;2023-12-22T04:31:06;2.80;;;1.38;;
23322;SDS011;11833;52.554;13.554;2023-12-22T04:33:32;3.53;;;1.35;;
23322;SDS011;11833;52.554;13.554;2023-12-22T04:35:58;1.95;;;1.00;;
23322;SDS011;11833;52.554;13.554;2023-12-22T04:38:24;5.75;;;1.05;;
23322;SDS011;11833;52.554;13.554;2023-12-22T04:40:50;0.93;;;0.68;;
23322;SDS011;11833;52.554;13.554;2023-12-22T04:43:16;2.35;;;1.08;;
23322;SDS011;11833;52.554;13.554;2023-12-22T04:45:41;2.88;;;1.10;;
23322;SDS011;11833;52.554;13.554;2023-12-22T04:48:07;3.90;;;1.13;;
23322;SDS011;11833;52.554;13.554;2023-12-22T04:50:33;2.55;;;1.45;;
23322;SDS011;11833;52.554;13.554;2023-12-22T04:52:58;3.72;;;1.00;;
23322;SDS011;11833;52.554;13.554;2023-12-22T04:55:24;3.88;;;1.25;;
23322;SDS011;11833;52.554;13.554;2023-12-22T04:57:50;4.28;;;1.33;;
23322;SDS011;11833;52.554;13.554;2023-12-22T05:00:15;4.40;;;1.00;;
23322;SDS011;11833;52.554;13.554;2023-12-22T05:02:41;1.35;;;0.82;;
23322;SDS011;11833;52.554;13.554;2023-12-22T05:05:07;1.95;;;0.68;;
23322;SDS011;11833;52.554;13.554;2023-12-22T05:07:33;2.58;;;0.98;;
23322;SDS011;11833;52.554;13.554;2023-12-22T05:09:59;4.43;;;1.10;;
23322;SDS011;11833;52.554;13.554;2023-12-22T05:12:26;2.00;;;1.00;;
23322;SDS011;11833;52.554;13.554;2023-12-22T05:14:51;3.38;;;1.05;;
23322;SDS011;11833;52.554;13.554;2023-12-22T05:17:17;3.15;;;0.93;;
23322;SDS011;11833;52.554;13.554;2023-12-22T05:19:43;1.60;;;0.88;;
23322;SDS011;11833;52.554;13.554;2023-12-22T05:22:08;1.10;;;0.50;;
23322;SDS011;11833;52.554;13.554;2023-12-22T05:24:34;2.03;;;1.02;;
23322;SDS011;11833;52.554;13.554;2023-12-22T05:27:01;1.77;;;0.95;;
23322;SDS011;11833;52.554;13.554;2023-12-22T05:29:27;3.67;;;1.27;;
23322;SDS011;11833;52.554;13.554;2023-12-22T05:31:53;1.58;;;0.80;;
23322;SDS011;11833;52.554;13.554;2023-12-22T05:34:19;4.32;;;1.00;;
23322;SDS011;11833;52.554;13.554;2023-12-22T05:36:44;1.05;;;0.70;;
23322;SDS011;11833;52.554;13.554;2023-12-22T05:39:10;1.02;;;0.70;;
23322;SDS011;11833;52.554;13.554;2023-12-22T05:41:36;3.30;;;0.90;;
23322;SDS011;11833;52.554;13.554;2023-12-22T05:44:03;1.55;;;1.10;;
23322;SDS011;11833;52.554;13.554;2023-12-22T05:46:30;2.30;;;0.80;;
23322;SDS011;11833;52.554;13.554;2023-12-22T05:49:01;2.40;;;0.80;;
23322;SDS011;11833;52.554;13.554;2023-12-22T05:51:26;2.63;;;0.73;;
23322;SDS011;11833;52.554;13.554;2023-12-22T05:53:52;2.53;;;0.88;;
23322;SDS011;11833;52.554;13.554;2023-12-22T05:56:21;3.95;;;1.23;;
23322;SDS011;11833;52.554;13.554;2023-12-22T05:58:47;3.95;;;1.15;;
23322;SDS011;11833;52.554;13.554;2023-12-22T06:01:15;3.58;;;1.35;;
23322;SDS011;11833;52.554;13.554;2023-12-22T06:03:43;5.28;;;0.95;;
23322;SDS011;11833;52.554;13.554;2023-12-22T06:06:12;4.80;;;1.33;;
23322;SDS011;11833;52.554;13.554;2023-12-22T06:08:38;1.52;;;0.90;;
23322;SDS011;11833;52.554;13.554;2023-12-22T06:11:04;2.35;;;0.77;;
23322;SDS011;11833;52.554;13.554;2023-12-22T06:13:30;3.13;;;1.10;;
23322;SDS011;11833;52.554;13.554;2023-12-22T06:15:56;4.13;;;1.10;;
23322;SDS011;11833;52.554;13.554;2023-12-22T06:18:22;2.70;;;1.00;;
23322;SDS011;11833;52.554;13.554;2023-12-22T06:20:48;4.45;;;1.90;;
23322;SDS011;11833;52.554;13.554;2023-12-22T06:23:13;3.58;;;1.35;;
23322;SDS011;11833;52.554;13.554;2023-12-22T06:25:39;2.70;;;1.15;;
23322;SDS011;11833;52.554;13.554;2023-12-22T06:28:05;3.20;;;1.30;;
23322;SDS011;11833;52.554;13.554;2023-12-22T06:30:30;4.85;;;1.08;;
23322;SDS011;11833;52.554;13.554;2023-12-22T06:32:56;2.22;;;1.10;;
23322;SDS011;11833;52.554;13.554;2023-12-22T06:35:22;3.58;;;1.13;;
23322;SDS011;11833;52.554;13.554;2023-12-22T06:37:50;3.42;;;0.90;;
23322;SDS011;11833;52.554;13.554;2023-12-22T06:40:17;3.75;;;1.00;;
23322;SDS011;11833;52.554;13.554;2023-12-22T06:42:46;3.25;;;0.95;;
23322;SDS011;11833;52.554;13.554;2023-12-22T06:45:11;3.55;;;1.00;;
23322;SDS011;11833;52.554;13.554;2023-12-22T06:47:37;2.90;;;1.10;;
23322;SDS011;11833;52.554;13.554;2023-12-22T06:50:03;6.43;;;1.42;;
23322;SDS011;11833;52.554;13.554;2023-12-22T06:52:29;3.35;;;0.90;;
23322;SDS011;11833;52.554;13.554;2023-12-22T06:54:55;1.42;;;0.90;;
23322;SDS011;11833;52.554;13.554;2023-12-22T06:57:21;2.97;;;1.02;;
23322;SDS011;11833;52.554;13.554;2023-12-22T06:59:47;3.72;;;1.35;;
23322;SDS011;11833;52.554;13.554;2023-12-22T07:02:15;3.38;;;1.10;;
23322;SDS011;11833;52.554;13.554;2023-12-22T07:07:35;3.40;;;0.80;;
23322;SDS011;11833;52.554;13.554;2023-12-22T07:10:01;4.18;;;1.10;;
23322;SDS011;11833;52.554;13.554;2023-12-22T07:12:27;5.00;;;0.98;;
23322;SDS011;11833;52.554;13.554;2023-12-22T07:14:53;1.83;;;0.70;;
23322;SDS011;11833;52.554;13.554;2023-12-22T07:17:19;3.63;;;0.85;;
23322;SDS011;11833;52.554;13.554;2023-12-22T07:19:44;3.53;;;1.20;;
23322;SDS011;11833;52.554;13.554;2023-12-22T07:22:10;8.68;;;1.48;;
23322;SDS011;11833;52.554;13.554;2023-12-22T07:24:36;2.25;;;1.05;;
23322;SDS011;11833;52.554;13.554;2023-12-22T07:27:02;3.05;;;1.10;;
23322;SDS011;11833;52.554;13.554;2023-12-22T07:29:28;4.05;;;1.10;;
23322;SDS011;11833;52.554;13.554;2023-12-22T07:31:54;4.22;;;1.10;;
23322;SDS011;11833;52.554;13.554;2023-12-22T07:34:19;2.10;;;0.98;;
23322;SDS011;11833;52.554;13.554;2023-12-22T07:36:47;3.63;;;1.00;;
23322;SDS011;11833;52.554;13.554;2023-12-22T07:39:13;2.55;;;1.10;;
23322;SDS011;11833;52.554;13.554;2023-12-22T07:41:39;4.10;;;1.35;;
23322;SDS011;11833;52.554;13.554;2023-12-22T07:44:05;5.00;;;1.30;;
23322;SDS011;11833;52.554;13.554;2023-12-22T07:46:31;3.97;;;1.35;;
23322;SDS011;11833;52.554;13.554;2023-12-22T07:48:56;5.82;;;2.17;;
23322;SDS011;11833;52.554;13.554;2023-12-22T07:51:22;6.32;;;1.75;;
23322;SDS011;11833;52.554;13.554;2023-12-22T07:53:48;7.30;;;1.42;;
23322;SDS011;11833;52.554;13.554;2023-12-22T07:56:14;2.40;;;1.20;;
23322;SDS011;11833;52.554;13.554;2023-12-22T07:58:39;9.43;;;1.63;;
23322;SDS011;11833;52.554;13.554;2023-12-22T08:01:05;4.85;;;1.20;;
23322;SDS011;11833;52.554;13.554;2023-12-22T08:03:32;3.78;;;1.15;;
23322;SDS011;11833;52.554;13.554;2023-12-22T08:05:58;4.57;;;1.67;;
23322;SDS011;11833;52.554;13.554;2023-12-22T08:08:23;8.68;;;1.50;;
23322;SDS011;11833;52.554;13.554;2023-12-22T08:10:49;7.97;;;2.22;;
23322;SDS011;11833;52.554;13.554;2023-12-22T08:13:15;3.72;;;1.25;;
23322;SDS011;11833;52.554;13.554;2023-12-22T08:15:43;3.72;;;1.48;;
23322;SDS011;11833;52.554;13.554;2023-12-22T08:18:09;9.40;;;1.58;;
23322;SDS011;11833;52.554;13.554;2023-12-22T08:20:35;6.88;;;1.42;;
23322;SDS011;11833;52.554;13.554;2023-12-22T08:23:01;4.65;;;1.45;;
23322;SDS011;11833;52.554;13.554;2023-12-22T08:25:26;4.95;;;1.58;;
23322;SDS011;11833;52.554;13.554;2023-12-22T08:27:52;5.88;;;1.33;;
23322;SDS011;11833;52.554;13.554;2023-12-22T08:30:18;4.95;;;2.45;;
23322;SDS011;11833;52.554;13.554;2023-12-22T08:32:43;4.20;;;1.20;;
23322;SDS011;11833;52.554;13.554;2023-12-22T08:35:10;2.60;;;1.30;;
23322;SDS011;11833;52.554;13.554;2023-12-22T08:37:35;9.13;;;1.67;;
23322;SDS011;11833;52.554;13.554;2023-12-22T08:40:02;4.05;;;1.35;;
23322;SDS011;11833;52.554;13.554;2023-12-22T08:42:28;2.45;;;1.15;;
23322;SDS011;11833;52.554;13.554;2023-12-22T08:44:55;3.83;;;0.90;;
23322;SDS011;11833;52.554;13.554;2023-12-22T08:47:21;2.95;;;1.20;;
23322;SDS011;11833;52.554;13.554;2023-12-22T08:49:47;5.85;;;1.25;;
23322;SDS011;11833;52.554;13.554;2023-12-22T08:52:12;3.72;;;1.10;;
23322;SDS011;11833;52.554;13.554;2023-12-22T08:54:38;7.65;;;1.73;;
23322;SDS011;11833;52.554;13.554;2023-12-22T08:57:04;4.50;;;0.90;;
23322;SDS011;11833;52.554;13.554;2023-12-22T08:59:30;6.05;;;1.10;;
23322;SDS011;11833;52.554;13.554;2023-12-22T09:01:56;4.72;;;1.33;;
23322;SDS011;11833;52.554;13.554;2023-12-22T09:04:21;3.22;;;1.10;;
23322;SDS011;11833;52.554;13.554;2023-12-22T09:06:48;5.55;;;1.80;;
23322;SDS011;11833;52.554;13.554;2023-12-22T09:09:17;8.68;;;1.40;;
23322;SDS011;11833;52.554;13.554;2023-12-22T09:11:43;7.78;;;1.98;;
23322;SDS011;11833;52.554;13.554;2023-12-22T09:14:09;4.25;;;1.20;;
23322;SDS011;11833;52.554;13.554;2023-12-22T09:16:35;6.90;;;1.95;;
23322;SDS011;11833;52.554;13.554;2023-12-22T09:19:02;6.57;;;1.20;;
23322;SDS011;11833;52.554;13.554;2023-12-22T09:21:28;8.15;;;1.73;;
23322;SDS011;11833;52.554;13.554;2023-12-22T09:23:54;4.70;;;1.13;;
23322;SDS011;11833;52.554;13.554;2023-12-22T09:26:20;5.88;;;1.30;;
23322;SDS011;11833;52.554;13.554;2023-12-22T09:28:46;7.28;;;2.65;;
23322;SDS011;11833;52.554;13.554;2023-12-22T09:31:13;6.25;;;1.20;;
23322;SDS011;11833;52.554;13.554;2023-12-22T09:33:39;5.07;;;1.50;;
23322;SDS011;11833;52.554;13.554;2023-12-22T09:36:06;5.85;;;1.85;;
23322;SDS011;11833;52.554;13.554;2023-12-22T09:38:33;3.03;;;1.15;;
23322;SDS011;11833;52.554;13.554;2023-12-22T09:40:58;8.90;;;2.28;;
23322;SDS011;11833;52.554;13.554;2023-12-22T09:43:26;6.97;;;1.45;;
23322;SDS011;11833;52.554;13.554;2023-12-22T09:45:52;8.52;;;2.22;;
23322;SDS011;11833;52.554;13.554;2023-12-22T09:48:18;5.85;;;1.50;;
23322;SDS011;11833;52.554;13.554;2023-12-22T09:50:51;8.60;;;1.77;;
23322;SDS011;11833;52.554;13.554;2023-12-22T09:53:19;8.13;;;2.75;;
23322;SDS011;11833;52.554;13.554;2023-12-22T09:55:46;10.18;;;1.83;;
23322;SDS011;11833;52.554;13.554;2023-12-22T09:58:12;7.35;;;1.52;;
23322;SDS011;11833;52.554;13.554;2023-12-22T10:00:41;6.38;;;1.60;;
23322;SDS011;11833;52.554;13.554;2023-12-22T10:03:09;3.50;;;1.20;;
23322;SDS011;11833;52.554;13.554;2023-12-22T10:05:37;5.20;;;1.50;;
23322;SDS011;11833;52.554;13.554;2023-12-22T10:08:04;8.98;;;1.75;;
23322;SDS011;11833;52.554;13.554;2023-12-22T10:10:31;6.78;;;1.75;;
23322;SDS011;11833;52.554;13.554;2023-12-22T10:12:58;9.75;;;1.75;;
23322;SDS011;11833;52.554;13.554;2023-12-22T10:15:24;8.93;;;1.55;;
23322;SDS011;11833;52.554;13.554;2023-12-22T10:17:51;7.97;;;1.85;;
23322;SDS011;11833;52.554;13.554;2023-12-22T10:20:18;10.07;;;2.42;;
23322;SDS011;11833;52.554;13.554;2023-12-22T10:22:44;6.75;;;1.95;;
23322;SDS011;11833;52.554;13.554;2023-12-22T10:25:11;8.55;;;1.40;;
23322;SDS011;11833;52.554;13.554;2023-12-22T10:27:42;8.20;;;1.70;;
23322;SDS011;11833;52.554;13.554;2023-12-22T10:30:08;7.88;;;1.92;;
23322;SDS011;11833;52.554;13.554;2023-12-22T10:32:41;6.88;;;1.40;;
23322;SDS011;11833;52.554;13.554;2023-12-22T10:35:07;7.22;;;2.92;;
23322;SDS011;11833;52.554;13.554;2023-12-22T10:37:34;13.73;;;1.80;;
23322;SDS011;11833;52.554;13.554;2023-12-22T10:39:59;10.35;;;2.05;;
23322;SDS011;11833;52.554;13.554;2023-12-22T10:42:29;6.72;;;1.88;;
23322;SDS011;11833;52.554;13.554;2023-12-22T10:44:55;3.75;;;1.67;;
23322;SDS011;11833;52.554;13.554;2023-12-22T10:47:22;5.20;;;1.98;;
23322;SDS011;11833;52.554;13.554;2023-12-22T10:49:48;6.65;;;1.40;;
23322;SDS011;11833;52.554;13.554;2023-12-22T10:52:17;8.48;;;1.65;;
23322;SDS011;11833;52.554;13.554;2023-12-22T10:54:45;8.27;;;1.45;;
23322;SDS011;11833;52.554;13.554;2023-12-22T10:57:11;6.90;;;1.80;;
23322;SDS011;11833;52.554;13.554;2023-12-22T10:59:43;10.32;;;2.38;;
23322;SDS011;11833;52.554;13.554;2023-12-22T11:02:15;5.53;;;1.70;;
23322;SDS011;11833;52.554;13.554;2023-12-22T11:04:47;11.15;;;1.77;;
23322;SDS011;11833;52.554;13.554;2023-12-22T11:07:26;10.90;;;2.55;;
23322;SDS011;11833;52.554;13.554;2023-12-22T11:09:56;11.32;;;2.20;;
23322;SDS011;11833;52.554;13.554;2023-12-22T11:12:28;9.38;;;2.03;;
23322;SDS011;11833;52.554;13.554;2023-12-22T11:14:57;11.73;;;1.67;;
23322;SDS011;11833;52.554;13.554;2023-12-22T11:17:23;10.85;;;2.35;;
23322;SDS011;11833;52.554;13.554;2023-12-22T11:19:50;6.70;;;1.75;;
23322;SDS011;11833;52.554;13.554;2023-12-22T11:22:19;5.85;;;1.73;;
23322;SDS011;11833;52.554;13.554;2023-12-22T11:24:47;9.68;;;1.83;;
23322;SDS011;11833;52.554;13.554;2023-12-22T11:27:18;7.93;;;1.95;;
23322;SDS011;11833;52.554;13.554;2023-12-22T11:29:48;9.50;;;2.17;;
23322;SDS011;11833;52.554;13.554;2023-12-22T11:32:15;4.72;;;1.35;;
23322;SDS011;11833;52.554;13.554;2023-12-22T11:34:47;5.30;;;1.63;;
23322;SDS011;11833;52.554;13.554;2023-12-22T11:37:14;8.23;;;2.13;;
23322;SDS011;11833;52.554;13.554;2023-12-22T11:39:44;3.65;;;1.35;;
23322;SDS011;11833;52.554;13.554;2023-12-22T11:42:15;4.03;;;1.52;;
23322;SDS011;11833;52.554;13.554;2023-12-22T11:44:52;12.90;;;2.25;;
23322;SDS011;11833;52.554;13.554;2023-12-22T11:47:21;7.22;;;2.10;;
23322;SDS011;11833;52.554;13.554;2023-12-22T11:49:48;6.60;;;1.70;;
23322;SDS011;11833;52.554;13.554;2023-12-22T11:52:17;9.27;;;1.70;;
23322;SDS011;11833;52.554;13.554;2023-12-22T11:54:51;5.82;;;1.58;;
23322;SDS011;11833;52.554;13.554;2023-12-22T11:59:57;8.27;;;1.50;;
23322;SDS011;11833;52.554;13.554;2023-12-22T12:02:29;8.57;;;1.55;;
23322;SDS011;11833;52.554;13.554;2023-12-22T12:04:57;10.45;;;1.38;;
23322;SDS011;11833;52.554;13.554;2023-12-22T12:07:45;4.45;;;1.25;;
23322;SDS011;11833;52.554;13.554;2023-12-22T12:13:04;8.25;;;1.50;;
23322;SDS011;11833;52.554;13.554;2023-12-22T12:15:34;6.15;;;2.25;;
23322;SDS011;11833;52.554;13.554;2023-12-22T12:18:00;5.78;;;1.60;;
23322;SDS011;11833;52.554;13.554;2023-12-22T12:20:31;7.18;;;2.10;;
23322;SDS011;11833;52.554;13.554;2023-12-22T12:22:57;20.83;;;2.67;;
23322;SDS011;11833;52.554;13.554;2023-12-22T12:25:23;7.60;;;1.38;;
23322;SDS011;11833;52.554;13.554;2023-12-22T12:28:03;7.90;;;1.67;;
23322;SDS011;11833;52.554;13.554;2023-12-22T12:30:31;6.68;;;1.20;;
23322;SDS011;11833;52.554;13.554;2023-12-22T12:33:07;3.58;;;1.02;;
23322;SDS011;11833;52.554;13.554;2023-12-22T12:35:38;8.07;;;1.90;;
23322;SDS011;11833;52.554;13.554;2023-12-22T12:38:05;6.60;;;1.55;;
23322;SDS011;11833;52.554;13.554;2023-12-22T12:40:31;6.03;;;1.70;;
23322;SDS011;11833;52.554;13.554;2023-12-22T12:43:00;11.73;;;1.75;;
23322;SDS011;11833;52.554;13.554;2023-12-22T12:45:27;6.97;;;1.45;;
23322;SDS011;11833;52.554;13.554;2023-12-22T12:48:00;5.85;;;1.27;;
23322;SDS011;11833;52.554;13.554;2023-12-22T12:50:27;3.72;;;1.50;;
23322;SDS011;11833;52.554;13.554;2023-12-22T12:52:54;5.82;;;1.38;;
23322;SDS011;11833;52.554;13.554;2023-12-22T12:55:21;6.03;;;1.40;;
23322;SDS011;11833;52.554;13.554;2023-12-22T12:57:48;5.20;;;1.20;;
23322;SDS011;11833;52.554;13.554;2023-12-22T13:00:24;7.50;;;1.80;;
23322;SDS011;11833;52.554;13.554;2023-12-22T13:03:01;8.25;;;1.80;;
23322;SDS011;11833;52.554;13.554;2023-12-22T13:05:28;5.90;;;1.33;;
23322;SDS011;11833;52.554;13.554;2023-12-22T13:08:05;10.02;;;1.45;;
23322;SDS011;11833;52.554;13.554;2023-12-22T13:10:33;7.13;;;1.92;;
23322;SDS011;11833;52.554;13.554;2023-12-22T13:12:59;4.18;;;1.10;;
23322;SDS011;11833;52.554;13.554;2023-12-22T13:15:25;5.22;;;1.50;;
23322;SDS011;11833;52.554;13.554;2023-12-22T13:17:51;5.28;;;1.58;;
23322;SDS011;11833;52.554;13.554;2023-12-22T13:20:17;7.53;;;1.98;;
23322;SDS011;11833;52.554;13.554;2023-12-22T13:22:43;5.45;;;1.55;;
23322;SDS011;11833;52.554;13.554;2023-12-22T13:25:09;5.40;;;1.50;;
23322;SDS011;11833;52.554;13.554;2023-12-22T13:30:15;6.53;;;1.35;;
23322;SDS011;11833;52.554;13.554;2023-12-22T13:33:01;9.27;;;1.92;;
23322;SDS011;11833;52.554;13.554;2023-12-22T13:35:27;9.55;;;1.85;;
23322;SDS011;11833;52.554;13.554;2023-12-22T13:37:54;6.25;;;1.90;;
23322;SDS011;11833;52.554;13.554;2023-12-22T13:40:20;6.13;;;1.45;;
23322;SDS011;11833;52.554;13.554;2023-12-22T13:42:58;7.93;;;1.73;;
23322;SDS011;11833;52.554;13.554;2023-12-22T13:45:26;5.68;;;2.20;;
23322;SDS011;11833;52.554;13.554;2023-12-22T13:47:53;14.57;;;2.05;;
23322;SDS011;11833;52.554;13.554;2023-12-22T13:50:19;9.98;;;1.60;;
23322;SDS011;11833;52.554;13.554;2023-12-22T13:52:48;8.88;;;1.95;;
23322;SDS011;11833;52.554;13.554;2023-12-22T13:55:18;7.70;;;1.45;;
23322;SDS011;11833;52.554;13.554;2023-12-22T13:57:47;11.43;;;1.88;;
23322;SDS011;11833;52.554;13.554;2023-12-22T14:02:46;9.40;;;2.15;;
23322;SDS011;11833;52.554;13.554;2023-12-22T14:05:16;9.55;;;2.35;;
23322;SDS011;11833;52.554;13.554;2023-12-22T14:07:45;5.40;;;2.00;;
23322;SDS011;11833;52.554;13.554;2023-12-22T14:10:11;10.88;;;1.70;;
23322;SDS011;11833;52.554;13.554;2023-12-22T14:12:38;7.38;;;1.45;;
23322;SDS011;11833;52.554;13.554;2023-12-22T14:15:08;11.30;;;1.85;;
23322;SDS011;11833;52.554;13.554;2023-12-22T14:17:35;6.38;;;1.98;;
23322;SDS011;11833;52.554;13.554;2023-12-22T14:20:01;4.88;;;1.63;;
23322;SDS011;11833;52.554;13.554;2023-12-22T14:22:29;6.53;;;2.40;;
23322;SDS011;11833;52.554;13.554;2023-12-22T14:24:55;7.97;;;2.05;;
23322;SDS011;11833;52.554;13.554;2023-12-22T14:27:24;8.23;;;2.03;;
23322;SDS011;11833;52.554;13.554;2023-12-22T14:29:50;9.70;;;1.63;;
23322;SDS011;11833;52.554;13.554;2023-12-22T14:32:15;11.10;;;1.95;;
23322;SDS011;11833;52.554;13.554;2023-12-22T14:34:44;7.57;;;1.73;;
23322;SDS011;11833;52.554;13.554;2023-12-22T14:37:10;7.80;;;1.83;;
23322;SDS011;11833;52.554;13.554;2023-12-22T14:39:36;8.05;;;1.83;;
23322;SDS011;11833;52.554;13.554;2023-12-22T14:42:02;8.70;;;2.28;;
23322;SDS011;11833;52.554;13.554;2023-12-22T14:44:28;8.13;;;1.80;;
23322;SDS011;11833;52.554;13.554;2023-12-22T14:46:54;7.55;;;1.58;;